createdAt,value
2019-02-05T00:00:05.076Z,-1.20
2019-02-05T00:01:05.133Z,-1.20
2019-02-05T00:02:04.280Z,-1.20
2019-02-05T00:03:04.445Z,-1.20
2019-02-05T00:04:04.410Z,-1.20
2019-02-05T00:05:04.815Z,-1.20
2019-02-05T00:06:05.079Z,-1.20
2019-02-05T00:07:04.248Z,-1.20
2019-02-05T00:08:04.496Z,-1.20
2019-02-05T00:09:04.910Z,-1.30
2019-02-05T00:10:04.582Z,-1.30
2019-02-05T00:11:04.590Z,-1.30
2019-02-05T00:12:05.167Z,-1.30
2019-02-05T00:13:04.236Z,-1.30
2019-02-05T00:14:04.754Z,-1.30
2019-02-05T00:15:04.192Z,-1.30
2019-02-05T00:16:04.714Z,-1.30
2019-02-05T00:17:04.324Z,-1.30
2019-02-05T00:18:04.660Z,-1.30
2019-02-05T00:19:04.385Z,-1.30
2019-02-05T00:20:04.477Z,-1.30
2019-02-05T00:21:04.626Z,-1.30
2019-02-05T00:22:04.158Z,-1.30
2019-02-05T00:23:05.145Z,-1.30
2019-02-05T00:24:04.397Z,-1.40
2019-02-05T00:25:04.705Z,-1.40
2019-02-05T00:26:06.033Z,-1.40
2019-02-05T00:27:04.248Z,-1.40
2019-02-05T00:28:04.422Z,-1.40
2019-02-05T00:29:09.456Z,-1.40
2019-02-05T00:30:04.318Z,-1.40
2019-02-05T00:31:04.337Z,-1.40
2019-02-05T00:32:04.383Z,-1.40
2019-02-05T00:33:04.458Z,-1.40
2019-02-05T00:34:04.850Z,-1.40
2019-02-05T00:35:04.276Z,-1.40
2019-02-05T00:36:04.722Z,-1.40
2019-02-05T00:37:04.681Z,-1.40
2019-02-05T00:38:05.652Z,-1.40
2019-02-05T00:39:04.828Z,-1.50
2019-02-05T00:40:04.862Z,-1.50
2019-02-05T00:41:04.939Z,-1.50
2019-02-05T00:42:04.983Z,-1.50
2019-02-05T00:43:05.164Z,-1.50
2019-02-05T00:44:04.238Z,-1.50
2019-02-05T00:45:05.006Z,-1.50
2019-02-05T00:46:05.136Z,-1.50
2019-02-05T00:47:05.149Z,-1.50
2019-02-05T00:48:05.135Z,-1.50
2019-02-05T00:49:09.430Z,-1.50
2019-02-05T00:50:04.837Z,-1.50
2019-02-05T00:51:04.459Z,-1.50
2019-02-05T00:52:04.630Z,-1.50
2019-02-05T00:53:04.341Z,-1.60
2019-02-05T00:54:04.683Z,-1.60
2019-02-05T00:55:04.287Z,-1.60
2019-02-05T00:56:04.673Z,-1.60
2019-02-05T00:57:04.204Z,-1.60
2019-02-05T00:58:04.778Z,-1.60
2019-02-05T00:59:05.012Z,-1.60
2019-02-05T01:00:05.083Z,-1.60
2019-02-05T01:01:04.880Z,-1.60
2019-02-05T01:02:05.054Z,-1.60
2019-02-05T01:03:05.286Z,-1.70
2019-02-05T01:04:04.710Z,-1.70
2019-02-05T01:05:05.045Z,-1.70
2019-02-05T01:06:04.615Z,-1.70
2019-02-05T01:07:04.769Z,-1.70
2019-02-05T01:08:04.215Z,-1.70
2019-02-05T01:09:04.406Z,-1.70
2019-02-05T01:10:05.037Z,-1.70
2019-02-05T01:11:05.129Z,-1.70
2019-02-05T01:12:05.237Z,-1.80
2019-02-05T01:13:04.212Z,-1.80
2019-02-05T01:14:05.023Z,-1.80
2019-02-05T01:15:04.359Z,-1.80
2019-02-05T01:16:04.520Z,-1.80
2019-02-05T01:17:04.674Z,-1.80
2019-02-05T01:18:05.103Z,-1.80
2019-02-05T01:19:05.121Z,-1.90
2019-02-05T01:20:05.112Z,-1.90
2019-02-05T01:21:04.284Z,-1.90
2019-02-05T01:22:04.728Z,-1.90
2019-02-05T01:23:04.780Z,-1.90
2019-02-05T01:24:04.297Z,-1.90
2019-02-05T01:25:04.570Z,-1.90
2019-02-05T01:26:04.554Z,-1.90
2019-02-05T01:27:04.712Z,-1.90
2019-02-05T01:28:05.354Z,-1.90
2019-02-05T01:29:10.214Z,-1.90
2019-02-05T01:30:04.680Z,-2.00
2019-02-05T01:31:04.845Z,-2.00
2019-02-05T01:32:04.315Z,-2.00
2019-02-05T01:33:04.459Z,-2.00
2019-02-05T01:34:04.451Z,-2.00
2019-02-05T01:35:04.711Z,-2.00
2019-02-05T01:36:05.054Z,-2.00
2019-02-05T01:37:04.274Z,-2.00
2019-02-05T01:38:04.817Z,-2.00
2019-02-05T01:39:05.179Z,-2.00
2019-02-05T01:40:04.885Z,-2.10
2019-02-05T01:41:05.112Z,-2.10
2019-02-05T01:42:04.207Z,-2.10
2019-02-05T01:43:04.244Z,-2.10
2019-02-05T01:44:04.448Z,-2.10
2019-02-05T01:45:05.431Z,-2.10
2019-02-05T01:46:04.763Z,-2.10
2019-02-05T01:47:04.822Z,-2.10
2019-02-05T01:48:04.544Z,-2.10
2019-02-05T01:49:09.655Z,-2.10
2019-02-05T01:50:05.037Z,-2.10
2019-02-05T01:51:04.626Z,-2.10
2019-02-05T01:52:04.814Z,-2.10
2019-02-05T01:53:04.870Z,-2.00
2019-02-05T01:54:04.740Z,-2.00
2019-02-05T01:55:04.817Z,-2.00
2019-02-05T01:56:04.877Z,-2.00
2019-02-05T01:57:04.896Z,-2.00
2019-02-05T01:58:04.372Z,-2.00
2019-02-05T01:59:04.449Z,-2.00
2019-02-05T02:00:04.383Z,-2.00
2019-02-05T02:01:04.625Z,-2.00
2019-02-05T02:02:05.026Z,-2.00
2019-02-05T02:03:04.739Z,-2.00
2019-02-05T02:04:04.740Z,-2.00
2019-02-05T02:05:04.428Z,-2.00
2019-02-05T02:06:04.375Z,-2.00
2019-02-05T02:07:04.348Z,-2.00
2019-02-05T02:08:04.567Z,-2.00
2019-02-05T02:09:04.878Z,-2.00
2019-02-05T02:10:04.176Z,-2.00
2019-02-05T02:11:04.423Z,-2.00
2019-02-05T02:12:04.394Z,-2.00
2019-02-05T02:13:04.457Z,-2.00
2019-02-05T02:14:04.906Z,-2.00
2019-02-05T02:15:04.364Z,-2.00
2019-02-05T02:16:04.914Z,-2.00
2019-02-05T02:17:05.134Z,-2.00
2019-02-05T02:18:05.053Z,-2.00
2019-02-05T02:19:05.127Z,-2.00
2019-02-05T02:20:04.212Z,-2.00
2019-02-05T02:21:04.478Z,-2.00
2019-02-05T02:22:04.470Z,-2.00
2019-02-05T02:23:04.649Z,-2.00
2019-02-05T02:24:04.663Z,-2.00
2019-02-05T02:25:05.069Z,-2.00
2019-02-05T02:26:04.665Z,-2.00
2019-02-05T02:27:04.735Z,-2.00
2019-02-05T02:28:04.250Z,-2.00
2019-02-05T02:29:04.457Z,-2.00
2019-02-05T02:30:04.569Z,-2.00
2019-02-05T02:31:04.549Z,-2.00
2019-02-05T02:32:05.115Z,-2.00
2019-02-05T02:33:05.244Z,-2.00
2019-02-05T02:34:04.784Z,-2.00
2019-02-05T02:35:04.449Z,-2.00
2019-02-05T02:36:04.879Z,-2.00
2019-02-05T02:37:04.947Z,-2.00
2019-02-05T02:38:04.982Z,-2.00
2019-02-05T02:39:05.008Z,-2.00
2019-02-05T02:40:05.007Z,-2.00
2019-02-05T02:41:05.107Z,-2.00
2019-02-05T02:42:04.173Z,-2.00
2019-02-05T02:43:04.288Z,-2.10
2019-02-05T02:44:04.392Z,-2.00
2019-02-05T02:45:09.306Z,-2.10
2019-02-05T02:46:04.719Z,-2.10
2019-02-05T02:47:04.794Z,-2.10
2019-02-05T02:48:04.382Z,-2.10
2019-02-05T02:49:04.772Z,-2.10
2019-02-05T02:50:05.068Z,-2.10
2019-02-05T02:51:04.199Z,-2.10
2019-02-05T02:52:04.653Z,-2.10
2019-02-05T02:53:04.724Z,-2.20
2019-02-05T02:54:04.850Z,-2.20
2019-02-05T02:55:04.939Z,-2.20
2019-02-05T02:56:04.629Z,-2.20
2019-02-05T02:57:05.233Z,-2.20
2019-02-05T02:58:04.298Z,-2.20
2019-02-05T02:59:04.716Z,-2.20
2019-02-05T03:00:04.576Z,-2.20
2019-02-05T03:01:04.783Z,-2.20
2019-02-05T03:02:05.766Z,-2.20
2019-02-05T03:03:04.464Z,-2.20
2019-02-05T03:04:04.935Z,-2.20
2019-02-05T03:05:04.247Z,-2.20
2019-02-05T03:06:04.890Z,-2.20
2019-02-05T03:07:05.220Z,-2.20
2019-02-05T03:08:04.264Z,-2.20
2019-02-05T03:09:04.424Z,-2.20
2019-02-05T03:10:04.580Z,-2.20
2019-02-05T03:11:04.616Z,-2.20
2019-02-05T03:12:04.485Z,-2.20
2019-02-05T03:13:04.841Z,-2.30
2019-02-05T03:14:04.893Z,-2.30
2019-02-05T03:15:04.994Z,-2.30
2019-02-05T03:16:04.444Z,-2.30
2019-02-05T03:17:04.592Z,-2.30
2019-02-05T03:18:05.138Z,-2.30
2019-02-05T03:19:04.934Z,-2.30
2019-02-05T03:20:04.914Z,-2.30
2019-02-05T03:21:04.378Z,-2.30
2019-02-05T03:22:04.774Z,-2.30
2019-02-05T03:23:04.985Z,-2.30
2019-02-05T03:24:05.117Z,-2.30
2019-02-05T03:25:04.423Z,-2.30
2019-02-05T03:26:05.218Z,-2.30
2019-02-05T03:27:16.888Z,-2.30
2019-02-05T03:28:04.897Z,-2.30
2019-02-05T03:29:10.064Z,-2.30
2019-02-05T03:30:04.671Z,-2.30
2019-02-05T03:31:04.601Z,-2.30
2019-02-05T03:32:05.969Z,-2.30
2019-02-05T03:33:05.058Z,-2.30
2019-02-05T03:34:05.202Z,-2.30
2019-02-05T03:35:05.932Z,-2.30
2019-02-05T03:36:04.542Z,-2.30
2019-02-05T03:37:04.668Z,-2.30
2019-02-05T03:38:04.618Z,-2.30
2019-02-05T03:39:04.715Z,-2.30
2019-02-05T03:40:04.457Z,-2.30
2019-02-05T03:41:04.616Z,-2.30
2019-02-05T03:42:05.468Z,-2.30
2019-02-05T03:43:04.216Z,-2.30
2019-02-05T03:44:04.819Z,-2.30
2019-02-05T03:45:04.751Z,-2.20
2019-02-05T03:46:05.092Z,-2.30
2019-02-05T03:47:05.193Z,-2.20
2019-02-05T03:48:04.744Z,-2.20
2019-02-05T03:49:09.778Z,-2.20
2019-02-05T03:50:04.218Z,-2.20
2019-02-05T03:51:04.784Z,-2.20
2019-02-05T03:52:04.403Z,-2.20
2019-02-05T03:53:04.378Z,-2.20
2019-02-05T03:54:04.610Z,-2.20
2019-02-05T03:55:05.049Z,-2.20
2019-02-05T03:56:04.964Z,-2.10
2019-02-05T03:57:04.404Z,-2.10
2019-02-05T03:58:04.451Z,-2.10
2019-02-05T03:59:05.161Z,-2.10
2019-02-05T04:00:04.491Z,-2.10
2019-02-05T04:01:04.631Z,-2.10
2019-02-05T04:02:04.814Z,-2.10
2019-02-05T04:03:04.394Z,-2.10
2019-02-05T04:04:04.506Z,-2.00
2019-02-05T04:05:04.492Z,-2.00
2019-02-05T04:06:05.075Z,-2.00
2019-02-05T04:07:04.624Z,-2.00
2019-02-05T04:08:04.278Z,-2.00
2019-02-05T04:09:05.011Z,-2.00
2019-02-05T04:10:05.059Z,-2.00
2019-02-05T04:11:05.013Z,-2.00
2019-02-05T04:12:04.510Z,-1.90
2019-02-05T04:13:04.495Z,-1.90
2019-02-05T04:14:04.723Z,-1.90
2019-02-05T04:15:05.181Z,-1.90
2019-02-05T04:16:04.593Z,-1.90
2019-02-05T04:17:04.866Z,-1.90
2019-02-05T04:18:04.390Z,-1.90
2019-02-05T04:19:04.434Z,-1.90
2019-02-05T04:20:04.469Z,-1.80
2019-02-05T04:21:05.359Z,-1.90
2019-02-05T04:22:04.220Z,-1.80
2019-02-05T04:23:04.429Z,-1.80
2019-02-05T04:24:04.943Z,-1.80
2019-02-05T04:25:04.672Z,-1.80
2019-02-05T04:26:04.227Z,-1.80
2019-02-05T04:27:04.528Z,-1.80
2019-02-05T04:28:04.240Z,-1.80
2019-02-05T04:29:09.786Z,-1.80
2019-02-05T04:30:04.194Z,-1.80
2019-02-05T04:31:04.388Z,-1.80
2019-02-05T04:32:04.522Z,-1.80
2019-02-05T04:33:05.095Z,-1.80
2019-02-05T04:34:04.772Z,-1.80
2019-02-05T04:35:05.172Z,-1.80
2019-02-05T04:36:04.357Z,-1.80
2019-02-05T04:37:04.635Z,-1.70
2019-02-05T04:38:04.638Z,-1.70
2019-02-05T04:39:04.646Z,-1.70
2019-02-05T04:40:05.071Z,-1.70
2019-02-05T04:41:05.245Z,-1.70
2019-02-05T04:42:04.504Z,-1.70
2019-02-05T04:43:04.931Z,-1.70
2019-02-05T04:44:04.991Z,-1.70
2019-02-05T04:45:05.005Z,-1.70
2019-02-05T04:46:04.314Z,-1.70
2019-02-05T04:47:04.453Z,-1.70
2019-02-05T04:48:04.543Z,-1.70
2019-02-05T04:49:09.952Z,-1.70
2019-02-05T04:50:04.176Z,-1.70
2019-02-05T04:51:04.679Z,-1.60
2019-02-05T04:52:04.638Z,-1.60
2019-02-05T04:53:05.096Z,-1.60
2019-02-05T04:54:04.600Z,-1.60
2019-02-05T04:55:04.648Z,-1.60
2019-02-05T04:56:04.980Z,-1.60
2019-02-05T04:57:04.827Z,-1.60
2019-02-05T04:58:05.277Z,-1.60
2019-02-05T04:59:04.623Z,-1.60
2019-02-05T05:00:04.601Z,-1.60
2019-02-05T05:01:04.992Z,-1.60
2019-02-05T05:02:05.092Z,-1.60
2019-02-05T05:03:04.356Z,-1.60
2019-02-05T05:04:04.765Z,-1.60
2019-02-05T05:05:05.051Z,-1.50
2019-02-05T05:06:04.601Z,-1.50
2019-02-05T05:07:04.752Z,-1.50
2019-02-05T05:08:04.883Z,-1.50
2019-02-05T05:09:04.882Z,-1.50
2019-02-05T05:10:04.253Z,-1.50
2019-02-05T05:11:04.479Z,-1.50
2019-02-05T05:12:04.560Z,-1.50
2019-02-05T05:13:04.642Z,-1.50
2019-02-05T05:14:05.000Z,-1.40
2019-02-05T05:15:04.678Z,-1.50
2019-02-05T05:16:04.348Z,-1.40
2019-02-05T05:17:04.498Z,-1.40
2019-02-05T05:18:04.930Z,-1.40
2019-02-05T05:19:05.100Z,-1.40
2019-02-05T05:20:05.012Z,-1.40
2019-02-05T05:21:04.339Z,-1.40
2019-02-05T05:22:04.297Z,-1.30
2019-02-05T05:23:05.063Z,-1.30
2019-02-05T05:24:05.045Z,-1.30
2019-02-05T05:25:05.567Z,-1.30
2019-02-05T05:26:05.126Z,-1.30
2019-02-05T05:27:04.965Z,-1.30
2019-02-05T05:28:09.861Z,-1.30
2019-02-05T05:29:05.064Z,-1.30
2019-02-05T05:30:04.403Z,-1.30
2019-02-05T05:31:05.686Z,-1.30
2019-02-05T05:32:05.082Z,-1.20
2019-02-05T05:33:05.104Z,-1.20
2019-02-05T05:34:04.621Z,-1.20
2019-02-05T05:35:04.629Z,-1.20
2019-02-05T05:36:09.875Z,-1.20
2019-02-05T05:37:05.318Z,-1.20
2019-02-05T05:38:04.270Z,-1.20
2019-02-05T05:39:04.381Z,-1.20
2019-02-05T05:40:04.886Z,-1.20
2019-02-05T05:41:04.571Z,-1.20
2019-02-05T05:42:04.426Z,-1.20
2019-02-05T05:43:04.614Z,-1.20
2019-02-05T05:44:04.474Z,-1.20
2019-02-05T05:45:04.171Z,-1.20
2019-02-05T05:46:04.841Z,-1.20
2019-02-05T05:47:05.199Z,-1.30
2019-02-05T05:48:04.565Z,-1.20
2019-02-05T05:49:05.100Z,-1.30
2019-02-05T05:50:05.319Z,-1.30
2019-02-05T05:51:04.670Z,-1.30
2019-02-05T05:52:05.050Z,-1.30
2019-02-05T05:53:04.908Z,-1.30
2019-02-05T05:54:04.996Z,-1.30
2019-02-05T05:55:05.206Z,-1.30
2019-02-05T05:56:04.670Z,-1.30
2019-02-05T05:57:04.994Z,-1.30
2019-02-05T05:58:04.944Z,-1.30
2019-02-05T05:59:04.923Z,-1.40
2019-02-05T06:00:04.481Z,-1.30
2019-02-05T06:01:05.059Z,-1.40
2019-02-05T06:02:04.274Z,-1.40
2019-02-05T06:03:04.406Z,-1.40
2019-02-05T06:04:05.127Z,-1.40
2019-02-05T06:05:05.116Z,-1.40
2019-02-05T06:06:04.812Z,-1.40
2019-02-05T06:07:05.070Z,-1.40
2019-02-05T06:08:05.027Z,-1.40
2019-02-05T06:09:04.674Z,-1.40
2019-02-05T06:10:07.076Z,-1.40
2019-02-05T06:11:05.006Z,-1.40
2019-02-05T06:12:05.647Z,-1.40
2019-02-05T06:13:04.872Z,-1.40
2019-02-05T06:14:04.890Z,-1.40
2019-02-05T06:15:05.093Z,-1.40
2019-02-05T06:16:05.077Z,-1.50
2019-02-05T06:17:04.751Z,-1.50
2019-02-05T06:18:04.767Z,-1.50
2019-02-05T06:19:04.971Z,-1.50
2019-02-05T06:20:04.988Z,-1.50
2019-02-05T06:21:04.900Z,-1.50
2019-02-05T06:22:04.919Z,-1.50
2019-02-05T06:23:04.227Z,-1.50
2019-02-05T06:24:04.816Z,-1.50
2019-02-05T06:25:05.001Z,-1.50
2019-02-05T06:26:05.109Z,-1.50
2019-02-05T06:27:04.326Z,-1.50
2019-02-05T06:28:04.633Z,-1.40
2019-02-05T06:29:04.843Z,-1.40
2019-02-05T06:30:04.859Z,-1.40
2019-02-05T06:31:04.909Z,-1.40
2019-02-05T06:32:04.865Z,-1.40
2019-02-05T06:33:05.274Z,-1.40
2019-02-05T06:34:04.803Z,-1.40
2019-02-05T06:35:05.012Z,-1.40
2019-02-05T06:36:05.573Z,-1.40
2019-02-05T06:37:04.254Z,-1.40
2019-02-05T06:38:04.399Z,-1.40
2019-02-05T06:39:04.575Z,-1.40
2019-02-05T06:40:04.603Z,-1.40
2019-02-05T06:41:04.877Z,-1.40
2019-02-05T06:42:04.813Z,-1.40
2019-02-05T06:43:05.037Z,-1.40
2019-02-05T06:44:09.522Z,-1.40
2019-02-05T06:45:05.112Z,-1.40
2019-02-05T06:46:05.247Z,-1.40
2019-02-05T06:47:04.213Z,-1.40
2019-02-05T06:48:04.353Z,-1.40
2019-02-05T06:49:05.126Z,-1.40
2019-02-05T06:50:05.013Z,-1.40
2019-02-05T06:51:04.413Z,-1.40
2019-02-05T06:52:04.518Z,-1.40
2019-02-05T06:53:05.177Z,-1.50
2019-02-05T06:54:04.508Z,-1.50
2019-02-05T06:55:05.292Z,-1.40
2019-02-05T06:56:04.165Z,-1.40
2019-02-05T06:57:04.466Z,-1.40
2019-02-05T06:58:04.831Z,-1.40
2019-02-05T06:59:05.063Z,-1.40
2019-02-05T07:00:04.985Z,-1.40
2019-02-05T07:01:05.124Z,-1.40
2019-02-05T07:02:04.351Z,-1.40
2019-02-05T07:03:04.466Z,-1.30
2019-02-05T07:04:05.091Z,-1.30
2019-02-05T07:05:05.303Z,-1.30
2019-02-05T07:06:04.767Z,-1.30
2019-02-05T07:07:04.898Z,-1.30
2019-02-05T07:08:04.461Z,-1.30
2019-02-05T07:09:04.516Z,-1.30
2019-02-05T07:10:04.732Z,-1.20
2019-02-05T07:11:04.491Z,-1.20
2019-02-05T07:12:04.914Z,-1.20
2019-02-05T07:13:04.905Z,-1.20
2019-02-05T07:14:04.955Z,-1.20
2019-02-05T07:15:04.254Z,-1.20
2019-02-05T07:16:04.655Z,-1.20
2019-02-05T07:17:05.219Z,-1.20
2019-02-05T07:18:04.494Z,-1.10
2019-02-05T07:19:04.409Z,-1.10
2019-02-05T07:20:04.538Z,-1.10
2019-02-05T07:21:04.724Z,-1.10
2019-02-05T07:22:04.989Z,-1.10
2019-02-05T07:23:05.082Z,-1.10
2019-02-05T07:24:04.255Z,-1.10
2019-02-05T07:25:04.342Z,-1.10
2019-02-05T07:26:04.515Z,-1.10
2019-02-05T07:27:05.046Z,-1.10
2019-02-05T07:28:05.400Z,-1.10
2019-02-05T07:29:09.287Z,-1.10
2019-02-05T07:30:04.706Z,-1.10
2019-02-05T07:31:04.961Z,-1.10
2019-02-05T07:32:05.398Z,-1.10
2019-02-05T07:33:04.427Z,-1.10
2019-02-05T07:34:04.477Z,-1.10
2019-02-05T07:35:04.563Z,-1.10
2019-02-05T07:36:05.217Z,-1.10
2019-02-05T07:37:04.200Z,-1.10
2019-02-05T07:38:04.710Z,-1.00
2019-02-05T07:39:04.830Z,-1.00
2019-02-05T07:40:04.897Z,-1.00
2019-02-05T07:41:04.479Z,-1.00
2019-02-05T07:42:04.655Z,-1.00
2019-02-05T07:43:04.889Z,-1.00
2019-02-05T07:44:05.152Z,-1.00
2019-02-05T07:45:04.208Z,-1.00
2019-02-05T07:46:04.296Z,-1.00
2019-02-05T07:47:04.455Z,-1.00
2019-02-05T07:48:04.902Z,-0.90
2019-02-05T07:49:04.220Z,-0.90
2019-02-05T07:50:04.459Z,-0.90
2019-02-05T07:51:04.864Z,-0.90
2019-02-05T07:52:04.249Z,-0.80
2019-02-05T07:53:04.244Z,-0.80
2019-02-05T07:54:04.347Z,-0.80
2019-02-05T07:55:04.211Z,-0.80
2019-02-05T07:56:04.581Z,-0.70
2019-02-05T07:57:04.681Z,-0.70
2019-02-05T07:58:04.730Z,-0.70
2019-02-05T07:59:10.011Z,-0.70
2019-02-05T08:00:05.232Z,-0.70
2019-02-05T08:01:04.369Z,-0.70
2019-02-05T08:02:05.103Z,-0.70
2019-02-05T08:03:04.747Z,-0.60
2019-02-05T08:04:04.889Z,-0.60
2019-02-05T08:05:05.128Z,-0.60
2019-02-05T08:06:04.942Z,-0.60
2019-02-05T08:07:07.566Z,-0.60
2019-02-05T08:08:04.445Z,-0.60
2019-02-05T08:09:05.059Z,-0.60
2019-02-05T08:10:04.228Z,-0.60
2019-02-05T08:11:04.455Z,-0.50
2019-02-05T08:12:04.715Z,-0.50
2019-02-05T08:13:04.802Z,-0.50
2019-02-05T08:14:06.134Z,-0.50
2019-02-05T08:15:05.077Z,-0.40
2019-02-05T08:16:04.454Z,-0.40
2019-02-05T08:17:05.228Z,-0.40
2019-02-05T08:18:04.616Z,-0.40
2019-02-05T08:19:04.786Z,-0.30
2019-02-05T08:20:04.280Z,-0.30
2019-02-05T08:21:04.486Z,-0.30
2019-02-05T08:22:04.601Z,-0.30
2019-02-05T08:23:05.260Z,-0.30
2019-02-05T08:24:04.637Z,-0.30
2019-02-05T08:25:04.851Z,-0.30
2019-02-05T08:26:04.900Z,-0.30
2019-02-05T08:27:04.276Z,-0.30
2019-02-05T08:28:04.418Z,-0.20
2019-02-05T08:29:21.106Z,-0.20
2019-02-05T08:30:05.129Z,-0.20
2019-02-05T08:31:05.042Z,-0.20
2019-02-05T08:32:04.207Z,-0.20
2019-02-05T08:33:04.433Z,-0.20
2019-02-05T08:34:04.541Z,-0.10
2019-02-05T08:35:05.222Z,-0.10
2019-02-05T08:36:04.287Z,-0.10
2019-02-05T08:37:04.849Z,0.00
2019-02-05T08:38:04.582Z,0.00
2019-02-05T08:39:05.036Z,0.00
2019-02-05T08:40:04.274Z,0.10
2019-02-05T08:41:04.659Z,0.10
2019-02-05T08:42:05.050Z,0.10
2019-02-05T08:43:04.375Z,0.10
2019-02-05T08:44:04.461Z,0.20
2019-02-05T08:45:05.281Z,0.20
2019-02-05T08:46:04.467Z,0.20
2019-02-05T08:47:04.490Z,0.20
2019-02-05T08:48:04.679Z,0.20
2019-02-05T08:49:09.799Z,0.20
2019-02-05T08:50:04.367Z,0.30
2019-02-05T08:51:04.399Z,0.30
2019-02-05T08:52:04.777Z,0.30
2019-02-05T08:53:05.026Z,0.30
2019-02-05T08:54:05.227Z,0.30
2019-02-05T08:55:04.214Z,0.30
2019-02-05T08:56:04.911Z,0.30
2019-02-05T08:57:04.468Z,0.40
2019-02-05T08:58:04.623Z,0.40
2019-02-05T08:59:05.076Z,0.50
2019-02-05T09:00:04.615Z,0.50
2019-02-05T09:01:05.022Z,0.50
2019-02-05T09:02:04.370Z,0.50
2019-02-05T09:03:04.679Z,0.60
2019-02-05T09:04:05.229Z,0.60
2019-02-05T09:05:04.438Z,0.60
2019-02-05T09:06:04.940Z,0.70
2019-02-05T09:07:04.616Z,0.70
2019-02-05T09:08:05.162Z,0.70
2019-02-05T09:09:05.200Z,0.80
2019-02-05T09:10:04.609Z,0.80
2019-02-05T09:11:04.808Z,0.80
2019-02-05T09:12:05.117Z,0.80
2019-02-05T09:13:05.193Z,0.90
2019-02-05T09:14:10.657Z,0.90
2019-02-05T09:15:05.087Z,1.00
2019-02-05T09:16:04.260Z,1.00
2019-02-05T09:17:04.948Z,1.00
2019-02-05T09:18:04.975Z,1.00
2019-02-05T09:19:04.298Z,1.00
2019-02-05T09:20:04.491Z,1.10
2019-02-05T09:21:05.185Z,1.10
2019-02-05T09:22:05.013Z,1.10
2019-02-05T09:23:05.065Z,1.20
2019-02-05T09:24:04.865Z,1.20
2019-02-05T09:25:04.897Z,1.20
2019-02-05T09:26:04.403Z,1.20
2019-02-05T09:27:04.614Z,1.30
2019-02-05T09:28:04.764Z,1.30
2019-02-05T09:29:09.300Z,1.30
2019-02-05T09:30:04.971Z,1.30
2019-02-05T09:31:04.242Z,1.30
2019-02-05T09:32:04.401Z,1.40
2019-02-05T09:33:04.571Z,1.40
2019-02-05T09:34:05.008Z,1.40
2019-02-05T09:35:05.068Z,1.40
2019-02-05T09:36:04.227Z,1.40
2019-02-05T09:37:04.348Z,1.50
2019-02-05T09:38:04.465Z,1.50
2019-02-05T09:39:04.632Z,1.50
2019-02-05T09:40:05.680Z,1.50
2019-02-05T09:41:04.786Z,1.60
2019-02-05T09:42:04.865Z,1.60
2019-02-05T09:43:04.991Z,1.60
2019-02-05T09:44:04.745Z,1.60
2019-02-05T09:45:05.018Z,1.70
2019-02-05T09:46:05.179Z,1.70
2019-02-05T09:47:04.427Z,1.70
2019-02-05T09:48:06.135Z,1.70
2019-02-05T09:49:04.833Z,1.70
2019-02-05T09:50:04.909Z,1.80
2019-02-05T09:51:04.635Z,1.80
2019-02-05T09:52:09.632Z,1.80
2019-02-05T09:53:05.115Z,1.90
2019-02-05T09:54:04.367Z,1.90
2019-02-05T09:55:04.776Z,1.90
2019-02-05T09:56:04.193Z,1.90
2019-02-05T09:57:04.453Z,1.90
2019-02-05T09:58:04.917Z,1.90
2019-02-05T09:59:04.621Z,2.00
2019-02-05T10:00:04.813Z,2.00
2019-02-05T10:01:05.004Z,2.00
2019-02-05T10:02:05.064Z,2.10
2019-02-05T10:03:04.822Z,2.10
2019-02-05T10:04:04.280Z,2.10
2019-02-05T10:05:04.486Z,2.10
2019-02-05T10:06:04.358Z,2.10
2019-02-05T10:07:04.905Z,2.10
2019-02-05T10:08:04.281Z,2.10
2019-02-05T10:09:04.394Z,2.10
2019-02-05T10:10:04.759Z,2.20
2019-02-05T10:11:04.816Z,2.20
2019-02-05T10:12:04.922Z,2.20
2019-02-05T10:13:04.591Z,2.20
2019-02-05T10:14:04.904Z,2.20
2019-02-05T10:15:05.094Z,2.20
2019-02-05T10:16:05.150Z,2.30
2019-02-05T10:17:04.405Z,2.30
2019-02-05T10:18:04.669Z,2.30
2019-02-05T10:19:05.171Z,2.30
2019-02-05T10:20:04.448Z,2.30
2019-02-05T10:21:04.585Z,2.30
2019-02-05T10:22:04.647Z,2.30
2019-02-05T10:23:04.732Z,2.30
2019-02-05T10:24:04.422Z,2.30
2019-02-05T10:25:05.061Z,2.30
2019-02-05T10:26:05.139Z,2.40
2019-02-05T10:27:04.292Z,2.40
2019-02-05T10:28:04.587Z,2.40
2019-02-05T10:29:09.861Z,2.40
2019-02-05T10:30:04.365Z,2.50
2019-02-05T10:31:04.481Z,2.50
2019-02-05T10:32:04.629Z,2.50
2019-02-05T10:33:04.840Z,2.50
2019-02-05T10:34:05.021Z,2.60
2019-02-05T10:35:04.441Z,2.60
2019-02-05T10:36:04.568Z,2.60
2019-02-05T10:37:04.664Z,2.60
2019-02-05T10:38:04.959Z,2.70
2019-02-05T10:39:04.576Z,2.70
2019-02-05T10:40:05.013Z,2.70
2019-02-05T10:41:04.994Z,2.70
2019-02-05T10:42:05.154Z,2.70
2019-02-05T10:43:04.948Z,2.80
2019-02-05T10:44:05.178Z,2.80
2019-02-05T10:45:04.783Z,2.80
2019-02-05T10:46:04.808Z,2.80
2019-02-05T10:47:04.293Z,2.80
2019-02-05T10:48:04.528Z,2.80
2019-02-05T10:49:04.515Z,2.80
2019-02-05T10:50:05.059Z,2.80
2019-02-05T10:51:05.077Z,2.90
2019-02-05T10:52:04.307Z,2.90
2019-02-05T10:53:04.823Z,2.90
2019-02-05T10:54:04.290Z,2.90
2019-02-05T10:55:04.687Z,2.90
2019-02-05T10:56:04.933Z,2.90
2019-02-05T10:57:04.228Z,2.90
2019-02-05T10:58:04.525Z,2.90
2019-02-05T10:59:05.127Z,2.90
2019-02-05T11:00:09.467Z,3.00
2019-02-05T11:01:05.208Z,3.00
2019-02-05T11:02:04.211Z,3.00
2019-02-05T11:03:04.577Z,3.00
2019-02-05T11:04:05.055Z,3.00
2019-02-05T11:05:04.828Z,3.00
2019-02-05T11:06:04.290Z,3.00
2019-02-05T11:07:05.007Z,3.00
2019-02-05T11:08:05.082Z,3.00
2019-02-05T11:09:04.323Z,3.00
2019-02-05T11:10:04.844Z,3.00
2019-02-05T11:11:04.853Z,3.10
2019-02-05T11:12:04.613Z,3.10
2019-02-05T11:13:04.740Z,3.10
2019-02-05T11:14:04.960Z,3.10
2019-02-05T11:15:05.055Z,3.10
2019-02-05T11:16:05.130Z,3.10
2019-02-05T11:17:04.752Z,3.10
2019-02-05T11:18:04.443Z,3.10
2019-02-05T11:19:04.539Z,3.10
2019-02-05T11:20:04.820Z,3.10
2019-02-05T11:21:05.162Z,3.10
2019-02-05T11:22:04.357Z,3.20
2019-02-05T11:23:04.457Z,3.20
2019-02-05T11:24:05.222Z,3.20
2019-02-05T11:25:04.501Z,3.20
2019-02-05T11:26:04.568Z,3.20
2019-02-05T11:27:05.002Z,3.20
2019-02-05T11:28:04.241Z,3.20
2019-02-05T11:29:10.026Z,3.30
2019-02-05T11:30:04.454Z,3.30
2019-02-05T11:31:05.091Z,3.30
2019-02-05T11:32:04.493Z,3.30
2019-02-05T11:33:04.782Z,3.30
2019-02-05T11:34:04.353Z,3.30
2019-02-05T11:35:04.558Z,3.30
2019-02-05T11:36:04.878Z,3.30
2019-02-05T11:37:04.654Z,3.30
2019-02-05T11:38:04.714Z,3.30
2019-02-05T11:39:04.421Z,3.30
2019-02-05T11:40:04.576Z,3.30
2019-02-05T11:41:05.071Z,3.30
2019-02-05T11:42:04.438Z,3.30
2019-02-05T11:43:04.656Z,3.30
2019-02-05T11:44:04.297Z,3.40
2019-02-05T11:45:04.497Z,3.40
2019-02-05T11:46:04.615Z,3.40
2019-02-05T11:47:04.675Z,3.40
2019-02-05T11:48:04.907Z,3.40
2019-02-05T11:49:04.689Z,3.40
2019-02-05T11:50:04.765Z,3.50
2019-02-05T11:51:04.897Z,3.50
2019-02-05T11:52:04.886Z,3.50
2019-02-05T11:53:04.520Z,3.50
2019-02-05T11:54:04.640Z,3.50
2019-02-05T11:55:05.174Z,3.50
2019-02-05T11:56:04.895Z,3.60
2019-02-05T11:57:04.900Z,3.60
2019-02-05T11:58:04.444Z,3.60
2019-02-05T11:59:05.025Z,3.60
2019-02-05T12:00:04.654Z,3.70
2019-02-05T12:01:04.640Z,3.70
2019-02-05T12:02:05.046Z,3.70
2019-02-05T12:03:05.198Z,3.70
2019-02-05T12:04:04.983Z,3.70
2019-02-05T12:05:04.464Z,3.80
2019-02-05T12:06:04.534Z,3.80
2019-02-05T12:07:04.597Z,3.80
2019-02-05T12:08:04.983Z,3.80
2019-02-05T12:09:04.507Z,3.80
2019-02-05T12:10:05.064Z,3.80
2019-02-05T12:11:04.759Z,3.80
2019-02-05T12:12:05.014Z,3.80
2019-02-05T12:13:04.802Z,3.80
2019-02-05T12:14:04.537Z,3.80
2019-02-05T12:15:05.002Z,3.80
2019-02-05T12:16:05.170Z,3.80
2019-02-05T12:17:04.352Z,3.80
2019-02-05T12:18:05.075Z,3.80
2019-02-05T12:19:04.588Z,3.80
2019-02-05T12:20:04.722Z,3.80
2019-02-05T12:21:04.733Z,3.90
2019-02-05T12:22:04.445Z,3.90
2019-02-05T12:23:04.699Z,3.90
2019-02-05T12:24:05.270Z,3.90
2019-02-05T12:25:04.487Z,3.90
2019-02-05T12:26:04.523Z,3.90
2019-02-05T12:27:04.612Z,3.90
2019-02-05T12:28:04.290Z,3.90
2019-02-05T12:29:09.484Z,3.90
2019-02-05T12:30:05.000Z,3.90
2019-02-05T12:31:05.074Z,3.90
2019-02-05T12:32:04.490Z,3.90
2019-02-05T12:33:04.325Z,3.90
2019-02-05T12:34:04.366Z,3.90
2019-02-05T12:35:04.722Z,3.90
2019-02-05T12:36:05.074Z,3.90
2019-02-05T12:37:04.789Z,3.90
2019-02-05T12:38:05.028Z,3.90
2019-02-05T12:39:05.045Z,3.90
2019-02-05T12:40:04.634Z,3.90
2019-02-05T12:41:04.692Z,3.90
2019-02-05T12:42:04.305Z,3.90
2019-02-05T12:43:04.314Z,3.90
2019-02-05T12:44:04.762Z,3.90
2019-02-05T12:45:04.850Z,3.90
2019-02-05T12:46:04.834Z,3.90
2019-02-05T12:47:05.008Z,3.90
2019-02-05T12:48:04.850Z,3.90
2019-02-05T12:49:04.330Z,3.90
2019-02-05T12:50:04.570Z,4.00
2019-02-05T12:51:04.731Z,4.00
2019-02-05T12:52:04.825Z,4.00
2019-02-05T12:53:05.030Z,4.00
2019-02-05T12:54:05.084Z,4.00
2019-02-05T12:55:12.905Z,4.00
2019-02-05T12:56:04.661Z,4.00
2019-02-05T12:57:05.046Z,4.00
2019-02-05T12:58:04.676Z,4.00
2019-02-05T12:59:05.093Z,4.10
2019-02-05T13:00:04.353Z,4.10
2019-02-05T13:01:04.352Z,4.10